createdAt,value
2019-01-19T00:00:42.444Z,1016.64
2019-01-19T00:01:42.414Z,1016.60
2019-01-19T00:02:42.402Z,1016.60
2019-01-19T00:03:42.407Z,1016.58
2019-01-19T00:04:42.385Z,1016.61
2019-01-19T00:05:42.371Z,1016.55
2019-01-19T00:06:42.378Z,1016.60
2019-01-19T00:07:42.352Z,1016.53
2019-01-19T00:08:42.336Z,1016.55
2019-01-19T00:09:42.327Z,1016.50
2019-01-19T00:10:42.317Z,1016.56
2019-01-19T00:11:42.309Z,1016.55
2019-01-19T00:12:42.298Z,1016.54
2019-01-19T00:13:42.287Z,1016.54
2019-01-19T00:14:42.277Z,1016.56
2019-01-19T00:15:42.270Z,1016.58
2019-01-19T00:16:42.255Z,1016.66
2019-01-19T00:17:42.246Z,1016.64
2019-01-19T00:18:42.233Z,1016.62
2019-01-19T00:19:42.228Z,1016.56
2019-01-19T00:20:42.213Z,1016.62
2019-01-19T00:21:42.205Z,1016.64
2019-01-19T00:22:42.192Z,1016.69
2019-01-19T00:23:42.186Z,1016.67
2019-01-19T00:24:42.171Z,1016.64
2019-01-19T00:25:42.164Z,1016.61
2019-01-19T00:26:42.150Z,1016.62
2019-01-19T00:27:42.139Z,1016.64
2019-01-19T00:28:42.130Z,1016.63
2019-01-19T00:29:42.121Z,1016.64
2019-01-19T00:30:42.111Z,1016.64
2019-01-19T00:31:42.100Z,1016.63
2019-01-19T00:32:42.088Z,1016.60
2019-01-19T00:33:42.075Z,1016.59
2019-01-19T00:34:42.066Z,1016.57
2019-01-19T00:35:42.056Z,1016.55
2019-01-19T00:36:42.044Z,1016.59
2019-01-19T00:37:42.032Z,1016.60
2019-01-19T00:38:42.023Z,1016.58
2019-01-19T00:39:42.015Z,1016.58
2019-01-19T00:40:42.005Z,1016.59
2019-01-19T00:41:41.992Z,1016.59
2019-01-19T00:42:41.982Z,1016.61
2019-01-19T00:43:41.975Z,1016.56
2019-01-19T00:44:41.965Z,1016.63
2019-01-19T00:45:41.950Z,1016.62
2019-01-19T00:46:41.939Z,1016.60
2019-01-19T00:47:41.931Z,1016.58
2019-01-19T00:48:41.921Z,1016.57
2019-01-19T00:49:41.911Z,1016.57
2019-01-19T00:50:41.899Z,1016.60
2019-01-19T00:51:41.886Z,1016.58
2019-01-19T00:52:41.878Z,1016.58
2019-01-19T00:53:41.863Z,1016.56
2019-01-19T00:54:41.859Z,1016.56
2019-01-19T00:55:41.854Z,1016.57
2019-01-19T00:56:41.835Z,1016.56
2019-01-19T00:57:41.825Z,1016.55
2019-01-19T00:58:41.814Z,1016.53
2019-01-19T00:59:41.803Z,1016.58
2019-01-19T01:00:41.794Z,1016.57
2019-01-19T01:01:41.784Z,1016.59
2019-01-19T01:02:41.779Z,1016.57
2019-01-19T01:03:41.763Z,1016.58
2019-01-19T01:04:41.752Z,1016.54
2019-01-19T01:05:41.742Z,1016.52
2019-01-19T01:06:41.729Z,1016.56
2019-01-19T01:07:41.720Z,1016.57
2019-01-19T01:08:41.704Z,1016.56
2019-01-19T01:09:41.695Z,1016.57
2019-01-19T01:10:41.688Z,1016.55
2019-01-19T01:11:41.679Z,1016.60
2019-01-19T01:12:41.666Z,1016.61
2019-01-19T01:13:41.659Z,1016.66
2019-01-19T01:14:41.646Z,1016.63
2019-01-19T01:15:41.635Z,1016.63
2019-01-19T01:16:41.626Z,1016.60
2019-01-19T01:17:41.612Z,1016.62
2019-01-19T01:18:41.600Z,1016.65
2019-01-19T01:19:41.593Z,1016.66
2019-01-19T01:20:41.584Z,1016.65
2019-01-19T01:21:41.571Z,1016.63
2019-01-19T01:22:41.565Z,1016.67
2019-01-19T01:23:41.553Z,1016.67
2019-01-19T01:24:41.541Z,1016.68
2019-01-19T01:25:41.534Z,1016.65
2019-01-19T01:26:41.515Z,1016.65
2019-01-19T01:27:41.506Z,1016.68
2019-01-19T01:28:41.493Z,1016.62
2019-01-19T01:29:41.488Z,1016.65
2019-01-19T01:30:41.476Z,1016.68
2019-01-19T01:31:41.470Z,1016.68
2019-01-19T01:32:41.456Z,1016.67
2019-01-19T01:33:41.445Z,1016.68
2019-01-19T01:34:41.435Z,1016.73
2019-01-19T01:35:41.425Z,1016.74
2019-01-19T01:36:41.417Z,1016.72
2019-01-19T01:37:41.407Z,1016.74
2019-01-19T01:38:41.390Z,1016.74
2019-01-19T01:39:41.382Z,1016.76
2019-01-19T01:40:41.373Z,1016.69
2019-01-19T01:41:41.370Z,1016.76
2019-01-19T01:42:41.354Z,1016.78
2019-01-19T01:43:41.342Z,1016.72
2019-01-19T01:44:41.331Z,1016.73
2019-01-19T01:45:41.361Z,1016.71
2019-01-19T01:46:41.310Z,1016.71
2019-01-19T01:47:41.297Z,1016.69
2019-01-19T01:48:41.291Z,1016.69
2019-01-19T01:49:41.280Z,1016.74
2019-01-19T01:50:41.268Z,1016.62
2019-01-19T01:51:41.261Z,1016.67
2019-01-19T01:52:41.246Z,1016.70
2019-01-19T01:53:41.239Z,1016.67
2019-01-19T01:54:41.229Z,1016.72
2019-01-19T01:55:41.217Z,1016.72
2019-01-19T01:56:41.207Z,1016.73
2019-01-19T01:57:41.195Z,1016.68
2019-01-19T01:58:41.183Z,1016.70
2019-01-19T01:59:41.172Z,1016.67
2019-01-19T02:00:41.164Z,1016.68
2019-01-19T02:01:41.155Z,1016.69
2019-01-19T02:02:41.142Z,1016.64
2019-01-19T02:03:41.130Z,1016.68
2019-01-19T02:04:41.125Z,1016.63
2019-01-19T02:05:41.111Z,1016.63
2019-01-19T02:06:41.103Z,1016.65
2019-01-19T02:07:41.091Z,1016.62
2019-01-19T02:08:41.078Z,1016.59
2019-01-19T02:09:41.070Z,1016.66
2019-01-19T02:10:41.057Z,1016.64
2019-01-19T02:11:41.051Z,1016.63
2019-01-19T02:12:41.046Z,1016.61
2019-01-19T02:13:41.024Z,1016.60
2019-01-19T02:14:41.011Z,1016.58
2019-01-19T02:15:41.009Z,1016.55
2019-01-19T02:16:40.997Z,1016.58
2019-01-19T02:17:40.984Z,1016.61
2019-01-19T02:18:40.980Z,1016.60
2019-01-19T02:19:40.963Z,1016.58
2019-01-19T02:20:40.953Z,1016.58
2019-01-19T02:21:40.942Z,1016.57
2019-01-19T02:22:40.931Z,1016.57
2019-01-19T02:23:40.918Z,1016.61
2019-01-19T02:24:40.909Z,1016.60
2019-01-19T02:25:40.894Z,1016.61
2019-01-19T02:26:40.886Z,1016.60
2019-01-19T02:27:40.879Z,1016.60
2019-01-19T02:28:40.863Z,1016.60
2019-01-19T02:29:40.855Z,1016.61
2019-01-19T02:30:40.850Z,1016.65
2019-01-19T02:31:40.831Z,1016.66
2019-01-19T02:32:40.822Z,1016.63
2019-01-19T02:33:40.816Z,1016.61
2019-01-19T02:34:40.809Z,1016.62
2019-01-19T02:35:48.148Z,1016.64
2019-01-19T02:36:41.782Z,1016.62
2019-01-19T02:37:40.771Z,1016.60
2019-01-19T02:38:40.765Z,1016.56
2019-01-19T02:39:40.752Z,1016.61
2019-01-19T02:40:40.745Z,1016.61
2019-01-19T02:41:40.739Z,1016.62
2019-01-19T02:42:40.721Z,1016.61
2019-01-19T02:43:40.708Z,1016.61
2019-01-19T02:44:40.699Z,1016.57
2019-01-19T02:45:40.691Z,1016.62
2019-01-19T02:46:40.685Z,1016.58
2019-01-19T02:47:40.671Z,1016.55
2019-01-19T02:48:40.660Z,1016.57
2019-01-19T02:49:40.645Z,1016.56
2019-01-19T02:50:40.637Z,1016.56
2019-01-19T02:51:40.629Z,1016.63
2019-01-19T02:52:40.620Z,1016.54
2019-01-19T02:53:40.612Z,1016.57
2019-01-19T02:54:40.597Z,1016.55
2019-01-19T02:55:40.589Z,1016.53
2019-01-19T02:56:40.575Z,1016.56
2019-01-19T02:57:40.563Z,1016.56
2019-01-19T02:58:40.560Z,1016.51
2019-01-19T02:59:40.541Z,1016.56
2019-01-19T03:00:40.531Z,1016.55
2019-01-19T03:01:40.523Z,1016.51
2019-01-19T03:02:40.511Z,1016.56
2019-01-19T03:03:40.501Z,1016.53
2019-01-19T03:04:40.492Z,1016.56
2019-01-19T03:05:40.479Z,1016.51
2019-01-19T03:06:40.471Z,1016.54
2019-01-19T03:07:40.456Z,1016.54
2019-01-19T03:08:40.449Z,1016.53
2019-01-19T03:09:40.441Z,1016.50
2019-01-19T03:10:40.437Z,1016.48
2019-01-19T03:11:40.416Z,1016.49
2019-01-19T03:12:40.411Z,1016.50
2019-01-19T03:13:40.396Z,1016.57
2019-01-19T03:14:40.387Z,1016.54
2019-01-19T03:15:40.375Z,1016.52
2019-01-19T03:16:40.367Z,1016.52
2019-01-19T03:17:40.355Z,1016.49
2019-01-19T03:18:40.345Z,1016.51
2019-01-19T03:19:40.339Z,1016.48
2019-01-19T03:20:40.322Z,1016.50
2019-01-19T03:21:40.315Z,1016.53
2019-01-19T03:22:40.306Z,1016.55
2019-01-19T03:23:40.290Z,1016.57
2019-01-19T03:24:40.276Z,1016.57
2019-01-19T03:25:40.270Z,1016.58
2019-01-19T03:26:40.257Z,1016.55
2019-01-19T03:27:40.253Z,1016.52
2019-01-19T03:28:40.239Z,1016.55
2019-01-19T03:29:40.233Z,1016.52
2019-01-19T03:30:40.222Z,1016.51
2019-01-19T03:31:40.218Z,1016.51
2019-01-19T03:32:40.197Z,1016.51
2019-01-19T03:33:40.187Z,1016.46
2019-01-19T03:34:40.169Z,1016.51
2019-01-19T03:35:40.166Z,1016.44
2019-01-19T03:36:40.157Z,1016.50
2019-01-19T03:37:40.145Z,1016.52
2019-01-19T03:38:40.134Z,1016.49
2019-01-19T03:39:40.126Z,1016.51
2019-01-19T03:40:40.111Z,1016.51
2019-01-19T03:41:40.105Z,1016.52
2019-01-19T03:42:40.091Z,1016.54
2019-01-19T03:43:40.084Z,1016.48
2019-01-19T03:44:40.070Z,1016.49
2019-01-19T03:45:40.060Z,1016.52
2019-01-19T03:46:40.049Z,1016.52
2019-01-19T03:47:40.042Z,1016.55
2019-01-19T03:48:40.034Z,1016.55
2019-01-19T03:49:40.018Z,1016.60
2019-01-19T03:50:40.008Z,1016.55
2019-01-19T03:51:40.000Z,1016.61
2019-01-19T03:52:39.988Z,1016.62
2019-01-19T03:53:39.982Z,1016.60
2019-01-19T03:54:39.960Z,1016.68
2019-01-19T03:55:39.958Z,1016.69
2019-01-19T03:56:39.950Z,1016.70
2019-01-19T03:57:39.937Z,1016.74
2019-01-19T03:58:39.925Z,1016.67
2019-01-19T03:59:39.914Z,1016.61
2019-01-19T04:00:39.904Z,1016.67
2019-01-19T04:01:39.895Z,1016.60
2019-01-19T04:02:39.884Z,1016.64
2019-01-19T04:03:39.875Z,1016.67
2019-01-19T04:04:39.935Z,1016.65
2019-01-19T04:05:39.849Z,1016.60
2019-01-19T04:06:39.840Z,1016.65
2019-01-19T04:07:39.834Z,1016.61
2019-01-19T04:08:39.819Z,1016.61
2019-01-19T04:09:39.808Z,1016.61
2019-01-19T04:10:39.798Z,1016.67
2019-01-19T04:11:39.782Z,1016.68
2019-01-19T04:12:39.776Z,1016.69
2019-01-19T04:13:39.768Z,1016.67
2019-01-19T04:14:39.757Z,1016.69
2019-01-19T04:15:39.744Z,1016.62
2019-01-19T04:16:39.735Z,1016.72
2019-01-19T04:17:39.724Z,1016.68
2019-01-19T04:18:39.719Z,1016.70
2019-01-19T04:19:39.705Z,1016.71
2019-01-19T04:20:39.695Z,1016.70
2019-01-19T04:21:39.682Z,1016.67
2019-01-19T04:22:39.672Z,1016.70
2019-01-19T04:23:39.661Z,1016.71
2019-01-19T04:24:39.653Z,1016.69
2019-01-19T04:25:39.646Z,1016.68
2019-01-19T04:26:39.634Z,1016.74
2019-01-19T04:27:39.616Z,1016.71
2019-01-19T04:28:39.610Z,1016.66
2019-01-19T04:29:39.598Z,1016.70
2019-01-19T04:30:39.588Z,1016.67
2019-01-19T04:31:39.579Z,1016.69
2019-01-19T04:32:39.569Z,1016.68
2019-01-19T04:33:39.558Z,1016.65
2019-01-19T04:34:39.547Z,1016.63
2019-01-19T04:35:39.533Z,1016.64
2019-01-19T04:36:39.525Z,1016.68
2019-01-19T04:37:39.516Z,1016.67
2019-01-19T04:38:39.505Z,1016.65
2019-01-19T04:39:39.495Z,1016.63
2019-01-19T04:40:39.487Z,1016.61
2019-01-19T04:41:39.477Z,1016.69
2019-01-19T04:42:39.465Z,1016.66
2019-01-19T04:43:39.455Z,1016.57
2019-01-19T04:44:39.449Z,1016.63
2019-01-19T04:45:39.431Z,1016.61
2019-01-19T04:46:39.418Z,1016.64
2019-01-19T04:47:39.410Z,1016.62
2019-01-19T04:48:39.396Z,1016.64
2019-01-19T04:49:39.388Z,1016.67
2019-01-19T04:50:39.409Z,1016.66
2019-01-19T04:51:39.370Z,1016.67
2019-01-19T04:52:39.360Z,1016.61
2019-01-19T04:53:39.349Z,1016.69
2019-01-19T04:54:39.338Z,1016.65
2019-01-19T04:55:39.328Z,1016.66
2019-01-19T04:56:39.317Z,1016.65
2019-01-19T04:57:39.305Z,1016.64
2019-01-19T04:58:39.292Z,1016.65
2019-01-19T04:59:39.291Z,1016.67
2019-01-19T05:00:39.271Z,1016.69
2019-01-19T05:01:39.260Z,1016.70
2019-01-19T05:02:39.251Z,1016.71
2019-01-19T05:03:39.245Z,1016.70
2019-01-19T05:04:39.236Z,1016.74
2019-01-19T05:05:39.224Z,1016.74
2019-01-19T05:06:39.213Z,1016.68
2019-01-19T05:07:39.204Z,1016.67
2019-01-19T05:08:39.192Z,1016.68
2019-01-19T05:09:39.183Z,1016.63
2019-01-19T05:10:39.173Z,1016.63
2019-01-19T05:11:39.163Z,1016.63
2019-01-19T05:12:39.149Z,1016.64
2019-01-19T05:13:39.141Z,1016.59
2019-01-19T05:14:39.130Z,1016.60
2019-01-19T05:15:39.122Z,1016.60
2019-01-19T05:16:39.109Z,1016.55
2019-01-19T05:17:39.109Z,1016.57
2019-01-19T05:18:39.083Z,1016.58
2019-01-19T05:19:39.075Z,1016.56
2019-01-19T05:20:39.061Z,1016.58
2019-01-19T05:21:39.056Z,1016.59
2019-01-19T05:22:39.043Z,1016.65
2019-01-19T05:23:39.032Z,1016.58
2019-01-19T05:24:39.029Z,1016.60
2019-01-19T05:25:39.017Z,1016.57
2019-01-19T05:26:39.003Z,1016.59
2019-01-19T05:27:38.994Z,1016.62
2019-01-19T05:28:38.988Z,1016.58
2019-01-19T05:29:38.991Z,1016.57
2019-01-19T05:30:38.965Z,1016.62
2019-01-19T05:31:38.953Z,1016.62
2019-01-19T05:32:38.938Z,1016.63
2019-01-19T05:33:38.929Z,1016.70
2019-01-19T05:34:38.917Z,1016.67
2019-01-19T05:35:38.908Z,1016.70
2019-01-19T05:36:38.898Z,1016.64
2019-01-19T05:37:38.885Z,1016.66
2019-01-19T05:38:38.883Z,1016.64
2019-01-19T05:39:38.864Z,1016.66
2019-01-19T05:40:38.857Z,1016.65
2019-01-19T05:41:38.845Z,1016.65
2019-01-19T05:42:38.836Z,1016.64
2019-01-19T05:43:38.826Z,1016.58
2019-01-19T05:44:38.813Z,1016.58
2019-01-19T05:45:38.805Z,1016.60
2019-01-19T05:46:38.796Z,1016.59
2019-01-19T05:47:38.782Z,1016.57
2019-01-19T05:48:38.776Z,1016.56
2019-01-19T05:49:38.770Z,1016.61
2019-01-19T05:50:38.751Z,1016.61
2019-01-19T05:51:38.744Z,1016.57
2019-01-19T05:52:38.728Z,1016.60
2019-01-19T05:53:38.719Z,1016.63
2019-01-19T05:54:38.710Z,1016.62
2019-01-19T05:55:38.698Z,1016.64
2019-01-19T05:56:38.699Z,1016.65
2019-01-19T05:57:38.683Z,1016.63
2019-01-19T05:58:38.674Z,1016.63
2019-01-19T05:59:38.660Z,1016.64
2019-01-19T06:00:38.650Z,1016.63
2019-01-19T06:01:38.636Z,1016.67
2019-01-19T06:02:38.624Z,1016.67
2019-01-19T06:03:38.614Z,1016.68
2019-01-19T06:04:38.608Z,1016.67
2019-01-19T06:05:38.606Z,1016.67
2019-01-19T06:06:46.342Z,1016.69
2019-01-19T06:07:39.571Z,1016.69
2019-01-19T06:08:38.562Z,1016.70
2019-01-19T06:09:38.552Z,1016.67
2019-01-19T06:10:38.546Z,1016.64
2019-01-19T06:11:38.536Z,1016.73
2019-01-19T06:12:38.525Z,1016.70
2019-01-19T06:13:38.510Z,1016.70
2019-01-19T06:14:38.499Z,1016.72
2019-01-19T06:15:38.490Z,1016.72
2019-01-19T06:16:38.480Z,1016.71
2019-01-19T06:17:38.470Z,1016.78
2019-01-19T06:18:38.459Z,1016.75
2019-01-19T06:19:38.450Z,1016.73
2019-01-19T06:20:38.436Z,1016.76
2019-01-19T06:21:38.426Z,1016.76
2019-01-19T06:22:38.419Z,1016.74
2019-01-19T06:23:38.406Z,1016.72
2019-01-19T06:24:38.399Z,1016.79
2019-01-19T06:25:38.387Z,1016.79
2019-01-19T06:26:38.373Z,1016.78
2019-01-19T06:27:38.367Z,1016.82
2019-01-19T06:28:38.352Z,1016.78
2019-01-19T06:29:38.344Z,1016.81
2019-01-19T06:30:38.334Z,1016.84
2019-01-19T06:31:38.370Z,1016.83
2019-01-19T06:32:38.314Z,1016.83
2019-01-19T06:33:38.302Z,1016.78
2019-01-19T06:34:38.289Z,1016.86
2019-01-19T06:35:38.280Z,1016.82
2019-01-19T06:36:38.271Z,1016.85
2019-01-19T06:37:38.258Z,1016.82
2019-01-19T06:38:38.248Z,1016.85
2019-01-19T06:39:38.234Z,1016.77
2019-01-19T06:40:38.234Z,1016.88
2019-01-19T06:41:38.225Z,1016.84
2019-01-19T06:42:38.210Z,1016.82
2019-01-19T06:43:38.196Z,1016.79
2019-01-19T06:44:38.184Z,1016.76
2019-01-19T06:45:38.177Z,1016.76
2019-01-19T06:46:38.164Z,1016.76
2019-01-19T06:47:38.156Z,1016.76
2019-01-19T06:48:38.144Z,1016.80
2019-01-19T06:49:38.135Z,1016.77
2019-01-19T06:50:38.121Z,1016.73
2019-01-19T06:51:38.114Z,1016.78
2019-01-19T06:52:38.099Z,1016.78
2019-01-19T06:53:38.097Z,1016.79
2019-01-19T06:54:38.078Z,1016.82
2019-01-19T06:55:38.073Z,1016.81
2019-01-19T06:56:38.060Z,1016.82
2019-01-19T06:57:38.049Z,1016.80
2019-01-19T06:58:38.040Z,1016.86
2019-01-19T06:59:38.029Z,1016.87
2019-01-19T07:00:38.019Z,1016.85
2019-01-19T07:01:38.007Z,1016.87
2019-01-19T07:02:37.996Z,1016.81
2019-01-19T07:03:37.998Z,1016.86
2019-01-19T07:04:37.978Z,1016.90
2019-01-19T07:05:37.966Z,1016.90
2019-01-19T07:06:37.954Z,1016.85
2019-01-19T07:07:37.945Z,1016.81
2019-01-19T07:08:37.932Z,1016.88
2019-01-19T07:09:37.922Z,1016.91
2019-01-19T07:10:37.914Z,1016.90
2019-01-19T07:11:37.903Z,1016.93
2019-01-19T07:12:37.893Z,1016.92
2019-01-19T07:13:37.880Z,1016.93
2019-01-19T07:14:37.871Z,1016.92
2019-01-19T07:15:37.860Z,1016.95
2019-01-19T07:16:37.849Z,1016.97
2019-01-19T07:17:37.841Z,1016.96
2019-01-19T07:18:37.826Z,1016.90
2019-01-19T07:19:37.814Z,1016.93
2019-01-19T07:20:37.809Z,1016.95
2019-01-19T07:21:37.797Z,1016.94
2019-01-19T07:22:37.791Z,1016.92
2019-01-19T07:23:37.775Z,1016.92
2019-01-19T07:24:37.766Z,1016.96
2019-01-19T07:25:37.759Z,1016.95
2019-01-19T07:26:37.745Z,1016.95
2019-01-19T07:27:37.736Z,1016.98
2019-01-19T07:28:37.721Z,1016.96
2019-01-19T07:29:37.717Z,1017.00
2019-01-19T07:30:37.704Z,1017.02
2019-01-19T07:31:37.693Z,1016.99
2019-01-19T07:32:37.682Z,1017.01
2019-01-19T07:33:37.671Z,1017.03
2019-01-19T07:34:37.668Z,1017.05
2019-01-19T07:35:37.652Z,1017.00
2019-01-19T07:36:37.642Z,1017.07
2019-01-19T07:37:37.630Z,1017.03
2019-01-19T07:38:37.619Z,1017.01
2019-01-19T07:39:37.612Z,1017.04
2019-01-19T07:40:37.598Z,1017.06
2019-01-19T07:41:37.583Z,1017.07
2019-01-19T07:42:37.573Z,1017.08
2019-01-19T07:43:37.565Z,1017.10
2019-01-19T07:44:37.553Z,1017.10
2019-01-19T07:45:37.543Z,1017.11
2019-01-19T07:46:37.529Z,1017.11
2019-01-19T07:47:37.522Z,1017.13
2019-01-19T07:48:37.508Z,1017.10
2019-01-19T07:49:37.499Z,1017.12
2019-01-19T07:50:37.488Z,1017.08
2019-01-19T07:51:37.478Z,1017.12
2019-01-19T07:52:37.467Z,1017.14
2019-01-19T07:53:37.456Z,1017.14
2019-01-19T07:54:37.446Z,1017.17
2019-01-19T07:55:37.437Z,1017.15
2019-01-19T07:56:37.425Z,1017.21
2019-01-19T07:57:37.418Z,1017.19
2019-01-19T07:58:37.405Z,1017.17
2019-01-19T07:59:37.393Z,1017.18
2019-01-19T08:00:37.383Z,1017.12
2019-01-19T08:01:37.372Z,1017.19
2019-01-19T08:02:37.362Z,1017.16
2019-01-19T08:03:37.351Z,1017.20
2019-01-19T08:04:37.341Z,1017.18
2019-01-19T08:05:37.330Z,1017.19
2019-01-19T08:06:37.320Z,1017.14
2019-01-19T08:07:37.315Z,1017.21
2019-01-19T08:08:37.298Z,1017.17
2019-01-19T08:09:37.288Z,1017.15
2019-01-19T08:10:37.277Z,1017.18
2019-01-19T08:11:37.267Z,1017.21
2019-01-19T08:12:37.258Z,1017.20
2019-01-19T08:13:37.301Z,1017.25
2019-01-19T08:14:37.238Z,1017.20
2019-01-19T08:15:37.227Z,1017.21
2019-01-19T08:16:37.221Z,1017.24
2019-01-19T08:17:37.215Z,1017.25
2019-01-19T08:18:37.200Z,1017.22
2019-01-19T08:19:37.192Z,1017.26
2019-01-19T08:20:37.183Z,1017.24
2019-01-19T08:21:37.175Z,1017.21
2019-01-19T08:22:37.162Z,1017.24
2019-01-19T08:23:37.148Z,1017.22
2019-01-19T08:24:37.141Z,1017.24
2019-01-19T08:25:37.133Z,1017.22
2019-01-19T08:26:37.123Z,1017.27
2019-01-19T08:27:37.108Z,1017.27
2019-01-19T08:28:37.105Z,1017.25
2019-01-19T08:29:37.088Z,1017.27
2019-01-19T08:30:37.077Z,1017.26
2019-01-19T08:31:37.064Z,1017.34
2019-01-19T08:32:37.056Z,1017.23
2019-01-19T08:33:37.045Z,1017.31
2019-01-19T08:34:37.033Z,1017.29
2019-01-19T08:35:37.025Z,1017.30
2019-01-19T08:36:37.013Z,1017.36
2019-01-19T08:37:37.015Z,1017.35
2019-01-19T08:38:36.997Z,1017.38
2019-01-19T08:39:36.980Z,1017.34
2019-01-19T08:40:36.970Z,1017.37
2019-01-19T08:41:36.967Z,1017.34
2019-01-19T08:42:36.956Z,1017.39
2019-01-19T08:43:36.940Z,1017.33
2019-01-19T08:44:36.929Z,1017.37
2019-01-19T08:45:36.915Z,1017.36
2019-01-19T08:46:36.946Z,1017.37
2019-01-19T08:47:36.898Z,1017.37
2019-01-19T08:48:36.883Z,1017.35
2019-01-19T08:49:36.877Z,1017.32
2019-01-19T08:50:36.864Z,1017.36
2019-01-19T08:51:36.856Z,1017.33
2019-01-19T08:52:36.847Z,1017.39
2019-01-19T08:53:36.844Z,1017.41
2019-01-19T08:54:36.839Z,1017.30
2019-01-19T08:55:36.976Z,1017.31
2019-01-19T08:56:38.144Z,1017.25
2019-01-19T08:57:36.830Z,1017.29
2019-01-19T08:58:36.823Z,1017.22
2019-01-19T08:59:36.781Z,1017.29
2019-01-19T09:00:36.765Z,1017.34
2019-01-19T09:01:36.797Z,1017.34
2019-01-19T09:02:36.794Z,1017.28
2019-01-19T09:03:36.728Z,1017.28
2019-01-19T09:04:36.718Z,1017.30
2019-01-19T09:05:36.713Z,1017.24
2019-01-19T09:06:36.730Z,1017.28
2019-01-19T09:07:36.710Z,1017.33
2019-01-19T09:08:36.699Z,1017.29
2019-01-19T09:09:36.672Z,1017.22
2019-01-19T09:10:36.661Z,1017.28
2019-01-19T09:11:36.640Z,1017.34
2019-01-19T09:12:36.630Z,1017.31
2019-01-19T09:13:36.627Z,1017.29
2019-01-19T09:14:36.607Z,1017.34
2019-01-19T09:15:36.597Z,1017.28
2019-01-19T09:16:40.543Z,1017.27
2019-01-19T09:17:37.576Z,1017.23
2019-01-19T09:18:36.583Z,1017.24
2019-01-19T09:19:36.562Z,1017.22
2019-01-19T09:20:36.544Z,1017.17
2019-01-19T09:21:36.535Z,1017.23
2019-01-19T09:22:36.527Z,1017.23
2019-01-19T09:23:36.513Z,1017.18
2019-01-19T09:24:36.502Z,1017.23
2019-01-19T09:25:36.492Z,1017.27
2019-01-19T09:26:36.544Z,1017.17
2019-01-19T09:27:36.471Z,1017.20
2019-01-19T09:28:36.464Z,1017.16
2019-01-19T09:29:36.452Z,1017.21
2019-01-19T09:30:36.441Z,1017.23
2019-01-19T09:31:36.436Z,1017.19
2019-01-19T09:32:36.417Z,1017.22
2019-01-19T09:33:36.404Z,1017.18
2019-01-19T09:34:36.402Z,1017.16
2019-01-19T09:35:36.382Z,1017.18
2019-01-19T09:36:36.431Z,1017.21
2019-01-19T09:37:40.788Z,1017.18
2019-01-19T09:38:36.353Z,1017.19
2019-01-19T09:39:36.347Z,1017.16
2019-01-19T09:40:36.331Z,1017.22
2019-01-19T09:41:36.319Z,1017.24
2019-01-19T09:42:36.308Z,1017.23
2019-01-19T09:43:36.298Z,1017.18
2019-01-19T09:44:36.287Z,1017.31
2019-01-19T09:45:36.304Z,1017.29
2019-01-19T09:46:36.267Z,1017.28
2019-01-19T09:47:36.258Z,1017.32
2019-01-19T09:48:36.249Z,1017.24
2019-01-19T09:49:36.235Z,1017.27
2019-01-19T09:50:36.233Z,1017.25
2019-01-19T09:51:36.211Z,1017.27
2019-01-19T09:52:36.201Z,1017.20
2019-01-19T09:53:36.189Z,1017.22
2019-01-19T09:54:36.186Z,1017.21
2019-01-19T09:55:36.172Z,1017.16
2019-01-19T09:56:36.179Z,1017.21
2019-01-19T09:57:37.117Z,1017.22
2019-01-19T09:58:36.145Z,1017.20
2019-01-19T09:59:36.128Z,1017.25
2019-01-19T10:00:37.831Z,1017.21
2019-01-19T10:01:36.108Z,1017.20
2019-01-19T10:02:36.095Z,1017.26
2019-01-19T10:03:36.085Z,1017.26
2019-01-19T10:04:36.073Z,1017.21
2019-01-19T10:05:36.071Z,1017.25
2019-01-19T10:06:36.055Z,1017.22
2019-01-19T10:07:36.044Z,1017.28
2019-01-19T10:08:36.036Z,1017.29
2019-01-19T10:09:36.025Z,1017.27
2019-01-19T10:10:36.010Z,1017.22
2019-01-19T10:11:36.000Z,1017.22
2019-01-19T10:12:35.987Z,1017.24
2019-01-19T10:13:35.977Z,1017.25
2019-01-19T10:14:35.969Z,1017.19
2019-01-19T10:15:35.969Z,1017.18
2019-01-19T10:16:35.946Z,1017.17
2019-01-19T10:17:35.935Z,1017.20
2019-01-19T10:18:35.927Z,1017.18
2019-01-19T10:19:35.917Z,1017.17
2019-01-19T10:20:35.905Z,1017.20
2019-01-19T10:21:35.906Z,1017.25
2019-01-19T10:22:35.882Z,1017.14
2019-01-19T10:23:35.877Z,1017.06
2019-01-19T10:24:35.862Z,1017.15
2019-01-19T10:25:35.855Z,1017.14
2019-01-19T10:26:35.843Z,1017.15
2019-01-19T10:27:37.533Z,1017.12
2019-01-19T10:28:35.816Z,1017.10
2019-01-19T10:29:35.803Z,1017.07
2019-01-19T10:30:35.798Z,1017.08
2019-01-19T10:31:35.785Z,1017.08
2019-01-19T10:32:35.777Z,1017.06
2019-01-19T10:33:35.768Z,1017.10
2019-01-19T10:34:35.758Z,1017.08
2019-01-19T10:35:35.742Z,1017.10
2019-01-19T10:36:35.737Z,1017.01
2019-01-19T10:37:35.725Z,1017.04
2019-01-19T10:38:35.717Z,1017.01
2019-01-19T10:39:35.702Z,1017.01
2019-01-19T10:40:35.695Z,1017.01
2019-01-19T10:41:40.839Z,1017.05
2019-01-19T10:42:36.671Z,1017.04
2019-01-19T10:43:35.656Z,1017.02
2019-01-19T10:44:35.650Z,1017.01
2019-01-19T10:45:35.641Z,1016.98
2019-01-19T10:46:35.628Z,1017.01
2019-01-19T10:47:35.613Z,1017.07
2019-01-19T10:48:35.612Z,1016.97
2019-01-19T10:49:35.596Z,1016.97
2019-01-19T10:50:35.583Z,1016.93
2019-01-19T10:51:35.570Z,1016.93
2019-01-19T10:52:35.559Z,1016.98
2019-01-19T10:53:35.550Z,1016.97
2019-01-19T10:54:35.541Z,1016.88
2019-01-19T10:55:35.528Z,1016.89
2019-01-19T10:56:35.520Z,1016.92
2019-01-19T10:57:35.506Z,1016.94
2019-01-19T10:58:35.499Z,1016.95
2019-01-19T10:59:35.489Z,1016.94
2019-01-19T11:00:35.480Z,1016.91
2019-01-19T11:01:35.467Z,1016.92
2019-01-19T11:02:35.462Z,1016.93
2019-01-19T11:03:35.445Z,1016.90
2019-01-19T11:04:35.438Z,1016.89
2019-01-19T11:05:35.462Z,1016.87
2019-01-19T11:06:35.410Z,1016.81
2019-01-19T11:07:35.445Z,1016.84
2019-01-19T11:08:35.392Z,1016.84
2019-01-19T11:09:35.381Z,1016.81
2019-01-19T11:10:35.372Z,1016.72
2019-01-19T11:11:35.358Z,1016.76
2019-01-19T11:12:35.352Z,1016.73
2019-01-19T11:13:35.337Z,1016.80
2019-01-19T11:14:35.328Z,1016.73
2019-01-19T11:15:35.322Z,1016.74
2019-01-19T11:16:35.314Z,1016.74
2019-01-19T11:17:35.298Z,1016.71
2019-01-19T11:18:35.284Z,1016.77
2019-01-19T11:19:35.271Z,1016.74
2019-01-19T11:20:35.268Z,1016.74
2019-01-19T11:21:35.251Z,1016.71
2019-01-19T11:22:35.242Z,1016.73
2019-01-19T11:23:39.731Z,1016.67
2019-01-19T11:24:35.224Z,1016.67
2019-01-19T11:25:35.207Z,1016.74
2019-01-19T11:26:35.201Z,1016.69
2019-01-19T11:27:35.190Z,1016.74
2019-01-19T11:28:35.173Z,1016.70
2019-01-19T11:29:35.179Z,1016.68
2019-01-19T11:30:35.159Z,1016.67
2019-01-19T11:31:35.141Z,1016.62
2019-01-19T11:32:35.136Z,1016.60
2019-01-19T11:33:35.138Z,1016.58
2019-01-19T11:34:35.118Z,1016.62
2019-01-19T11:35:35.105Z,1016.59
2019-01-19T11:36:35.090Z,1016.51
2019-01-19T11:37:35.083Z,1016.50
2019-01-19T11:38:35.075Z,1016.49
2019-01-19T11:39:35.062Z,1016.50
2019-01-19T11:40:35.047Z,1016.49
2019-01-19T11:41:35.036Z,1016.45
2019-01-19T11:42:35.035Z,1016.44
2019-01-19T11:43:35.058Z,1016.46
2019-01-19T11:44:35.015Z,1016.43
2019-01-19T11:45:34.994Z,1016.47
2019-01-19T11:46:34.981Z,1016.36
2019-01-19T11:47:34.973Z,1016.42
2019-01-19T11:48:34.969Z,1016.40
2019-01-19T11:49:34.949Z,1016.35
2019-01-19T11:50:34.943Z,1016.37
2019-01-19T11:51:34.927Z,1016.39
2019-01-19T11:52:34.966Z,1016.34
2019-01-19T11:53:34.912Z,1016.35
2019-01-19T11:54:34.901Z,1016.35
2019-01-19T11:55:34.886Z,1016.33
2019-01-19T11:56:34.979Z,1016.28
2019-01-19T11:57:34.864Z,1016.26
2019-01-19T11:58:34.856Z,1016.24
2019-01-19T11:59:34.848Z,1016.24
2019-01-19T12:00:34.832Z,1016.20
2019-01-19T12:01:34.823Z,1016.23
2019-01-19T12:02:37.147Z,1016.19
2019-01-19T12:03:34.804Z,1016.23
2019-01-19T12:04:34.792Z,1016.25
2019-01-19T12:05:34.782Z,1016.24